Time;durP1;ratioP1;P1;durP2;ratioP2;P2;SDS_P1;SDS_P2;PMS_P1;PMS_P2;Temp;Humidity;BMP_temperature;BMP_pressure;BME280_temperature;BME280_humidity;BME280_pressure;Samples;Min_cycle;Max_cycle;Signal;HPM_P1;HPM_P2
2024/04/01 00:00:35;;;;;;;0.60;0.60;;;;;;;13.98;71.03;96998.34;4983577;28;20058;-59
2024/04/01 00:03:02;;;;;;;0.60;0.60;;;;;;;14.12;71.49;97023.44;5016437;28;20104;-60
2024/04/01 00:05:28;;;;;;;0.70;0.70;;;;;;;14.41;70.86;97050.22;4983641;28;20112;-60
2024/04/01 00:07:55;;;;;;;0.70;0.70;;;;;;;14.41;70.60;97050.22;4982376;28;20065;-60
2024/04/01 00:10:21;;;;;;;0.60;0.60;;;;;;;14.32;70.71;97047.03;4983344;28;20058;-62
2024/04/01 00:12:47;;;;;;;0.60;0.60;;;;;;;13.96;70.53;96986.81;4982053;28;20128;-60
2024/04/01 00:15:19;;;;;;;0.60;0.60;;;;;;;14.27;69.96;97033.47;4983515;28;20062;-62
2024/04/01 00:17:45;;;;;;;0.60;0.60;;;;;;;14.36;70.31;97064.53;4982231;28;20053;-60
2024/04/01 00:20:11;;;;;;;0.60;0.60;;;;;;;14.33;70.79;97048.59;4983533;28;20058;-62
2024/04/01 00:22:37;;;;;;;0.60;0.60;;;;;;;13.76;71.27;96985.53;5016946;28;20054;-62
2024/04/01 00:25:04;;;;;;;0.60;0.60;;;;;;;14.17;72.03;97056.47;4983605;28;20090;-60
2024/04/01 00:27:30;;;;;;;0.60;0.60;;;;;;;14.06;72.72;97050.09;4998810;28;20105;-61
2024/04/01 00:29:55;;;;;;;0.60;0.60;;;;;;;14.00;73.19;97054.44;4983669;28;20054;-61
2024/04/01 00:32:21;;;;;;;0.70;0.70;;;;;;;13.87;73.80;97055.97;4983231;28;20141;-60
2024/04/01 00:34:47;;;;;;;0.50;0.50;;;;;;;13.85;72.46;97022.19;4966924;28;20539;-59
2024/04/01 00:37:13;;;;;;;0.60;0.60;;;;;;;13.42;72.81;96960.75;4982879;28;20073;-60
2024/04/01 00:39:39;;;;;;;0.60;0.60;;;;;;;13.86;73.51;97057.19;4983673;28;20061;-60
2024/04/01 00:42:05;;;;;;;0.70;0.70;;;;;;;13.66;74.75;97057.47;4999648;28;20061;-61
2024/04/01 00:44:31;;;;;;;0.60;0.60;;;;;;;13.69;75.01;97053.91;4982670;28;20121;-60
2024/04/01 00:46:57;;;;;;;0.60;0.60;;;;;;;13.73;75.16;97048.38;4980883;28;20050;-60
2024/04/01 00:49:25;;;;;;;0.60;0.60;;;;;;;13.77;74.59;97051.19;4982972;28;20054;-60
2024/04/01 00:51:52;;;;;;;0.60;0.60;;;;;;;13.41;74.30;97006.47;4981000;28;20049;-60
2024/04/01 00:54:18;;;;;;;0.60;0.60;;;;;;;13.44;74.56;97014.03;4966366;28;20445;-60
2024/04/01 00:56:46;;;;;;;0.60;0.60;;;;;;;13.44;75.79;97047.41;4982042;28;20062;-60
2024/04/01 00:59:14;;;;;;;0.60;0.60;;;;;;;13.43;75.91;97051.41;4965928;28;20497;-60
2024/04/01 01:01:41;;;;;;;0.60;0.60;;;;;;;13.15;76.25;97006.69;4998815;28;20136;-60
2024/04/01 01:04:07;;;;;;;0.60;0.60;;;;;;;13.48;74.79;97048.22;4998788;28;20061;-59
2024/04/01 01:06:34;;;;;;;0.60;0.60;;;;;;;13.39;74.20;97039.44;4981709;28;20505;-60
2024/04/01 01:09:01;;;;;;;0.60;0.60;;;;;;;13.44;74.53;97064.13;4982589;28;20058;-60
2024/04/01 01:11:27;;;;;;;0.60;0.60;;;;;;;13.39;74.67;97056.13;4999013;28;20517;-60
2024/04/01 01:13:53;;;;;;;0.60;0.60;;;;;;;13.37;75.15;97052.94;4981221;28;20517;-59
2024/04/01 01:16:19;;;;;;;0.60;0.60;;;;;;;13.41;75.31;97052.94;4981832;28;20054;-60
2024/04/01 01:18:45;;;;;;;0.55;0.55;;;;;;;13.46;76.43;97050.63;4982181;28;20061;-59
2024/04/01 01:21:11;;;;;;;0.60;0.60;;;;;;;13.52;76.41;97056.59;4997888;28;20097;-59
2024/04/01 01:23:37;;;;;;;0.60;0.60;;;;;;;13.31;75.55;97009.16;4982236;28;20054;-61
2024/04/01 01:26:03;;;;;;;0.60;0.60;;;;;;;13.63;74.79;97044.34;4980794;28;20505;-61
2024/04/01 01:28:30;;;;;;;0.60;0.60;;;;;;;12.94;75.24;97000.97;4981356;28;20054;-60
2024/04/01 01:30:57;;;;;;;0.60;0.60;;;;;;;13.58;75.05;97052.25;4997885;28;20229;-61
2024/04/01 01:33:24;;;;;;;0.60;0.60;;;;;;;13.66;74.91;97043.56;4980353;28;20054;-61
2024/04/01 01:35:50;;;;;;;0.60;0.60;;;;;;;13.43;74.39;96998.53;4981225;28;20113;-60
2024/04/01 01:38:18;;;;;;;0.60;0.60;;;;;;;13.63;74.69;97041.56;5013494;28;20057;-60
2024/04/01 01:40:44;;;;;;;0.60;0.60;;;;;;;13.65;75.06;97044.75;4982247;28;20065;-60
2024/04/01 01:43:10;;;;;;;0.60;0.60;;;;;;;11.53;74.98;96720.56;4982638;28;20108;-59
2024/04/01 01:45:36;;;;;;;0.60;0.60;;;;;;;13.18;75.00;97011.47;4982245;28;20058;-60
2024/04/01 01:48:02;;;;;;;0.50;0.50;;;;;;;12.40;75.22;96903.69;4981731;28;20129;-60
2024/04/01 01:50:28;;;;;;;0.60;0.60;;;;;;;12.61;76.26;96953.88;4981577;28;20161;-59
2024/04/01 01:52:54;;;;;;;0.60;0.60;;;;;;;13.19;76.03;97057.59;4980348;28;20059;-59
2024/04/01 01:55:20;;;;;;;0.60;0.60;;;;;;;12.95;75.74;96999.78;4981957;28;20137;-60
2024/04/01 01:57:46;;;;;;;0.50;0.50;;;;;;;11.08;75.89;96704.34;4979740;28;20152;-60
2024/04/01 02:00:15;;;;;;;0.60;0.60;;;;;;;12.89;76.08;96997.75;4997921;28;20070;-60
2024/04/01 02:02:41;;;;;;;0.60;0.60;;;;;;;12.89;76.46;96998.56;4980109;28;20054;-60
2024/04/01 02:05:08;;;;;;;0.57;0.57;;;;;;;13.12;76.69;97040.84;4980915;28;20058;-60
2024/04/01 02:07:34;;;;;;;0.60;0.60;;;;;;;13.13;76.50;97042.47;4981726;28;20152;-61
2024/04/01 02:10:00;;;;;;;0.57;0.57;;;;;;;13.15;75.67;97040.06;4997317;28;20069;-60
2024/04/01 02:12:26;;;;;;;0.60;0.60;;;;;;;12.90;75.33;97000.13;4981541;28;20046;-59
2024/04/01 02:14:52;;;;;;;0.50;0.50;;;;;;;13.14;75.40;97044.03;4965053;28;20152;-60
2024/04/01 02:17:18;;;;;;;0.60;0.60;;;;;;;13.02;75.95;97047.16;4981746;28;20112;-59
2024/04/01 02:19:47;;;;;;;0.50;0.50;;;;;;;12.73;75.93;97003.59;4981976;28;20062;-61
2024/04/01 02:22:14;;;;;;;0.60;0.60;;;;;;;12.89;76.53;97026.34;4981578;28;20548;-61
2024/04/01 02:24:41;;;;;;;0.60;0.60;;;;;;;12.54;76.65;97001.03;4981750;28;20058;-59
2024/04/01 02:27:09;;;;;;;0.55;0.55;;;;;;;12.69;77.65;97043.66;4981348;28;20529;-60
2024/04/01 02:29:38;;;;;;;0.50;0.50;;;;;;;12.59;78.73;97034.03;4981537;28;20172;-60
2024/04/01 02:32:04;;;;;;;0.50;0.50;;;;;;;12.62;78.27;97030.50;4981277;28;20496;-60
2024/04/01 02:34:30;;;;;;;0.50;0.50;;;;;;;12.62;78.69;97030.50;4981357;28;20427;-59
2024/04/01 02:36:56;;;;;;;0.50;0.50;;;;;;;12.70;77.88;97023.81;4980938;28;20058;-59
2024/04/01 02:39:22;;;;;;;0.50;0.50;;;;;;;12.66;78.19;97025.75;4996985;28;20050;-60
2024/04/01 02:41:49;;;;;;;0.60;0.60;;;;;;;12.61;78.41;97031.69;4997422;28;20050;-59
2024/04/01 02:44:16;;;;;;;0.50;0.50;;;;;;;12.54;79.18;97026.06;4980715;28;20061;-61
2024/04/01 02:46:43;;;;;;;0.50;0.50;;;;;;;12.58;80.20;97032.47;4965253;28;20054;-60
2024/04/01 02:49:12;;;;;;;0.60;0.60;;;;;;;12.17;81.96;97022.53;4980500;28;20432;-59
2024/04/01 02:51:38;;;;;;;0.60;0.60;;;;;;;11.88;80.58;96970.66;4997383;28;20062;-59
2024/04/01 02:54:05;;;;;;;0.60;0.60;;;;;;;11.95;80.79;96982.63;4980892;28;20057;-61
2024/04/01 02:56:31;;;;;;;0.50;0.50;;;;;;;12.32;80.36;97021.47;4980983;28;20553;-60
2024/04/01 02:59:03;;;;;;;0.60;0.60;;;;;;;12.24;81.11;97036.47;4980880;28;20062;-60
2024/04/01 03:01:29;;;;;;;0.52;0.52;;;;;;;12.24;80.73;97017.03;4973884;28;20418;-60
2024/04/01 03:04:04;;;;;;;0.60;0.60;;;;;;;11.51;80.50;96889.34;4971310;28;20065;-60
2024/04/01 03:06:30;;;;;;;0.50;0.50;;;;;;;12.19;80.84;97003.50;4981547;28;20055;-60
2024/04/01 03:08:56;;;;;;;0.50;0.50;;;;;;;12.25;80.97;97017.84;4981103;28;20054;-60
2024/04/01 03:11:22;;;;;;;0.50;0.50;;;;;;;11.67;81.12;96935.16;4980417;28;20505;-60
2024/04/01 03:13:48;;;;;;;0.50;0.50;;;;;;;12.32;79.90;97012.34;4998396;28;20133;-60
2024/04/01 03:16:16;;;;;;;0.50;0.50;;;;;;;12.30;79.58;97007.16;4982789;28;20468;-60
2024/04/01 03:18:43;;;;;;;0.50;0.50;;;;;;;12.14;79.89;96989.94;4972190;28;20548;-60
2024/04/01 03:21:09;;;;;;;0.50;0.50;;;;;;;12.22;80.82;97019.38;4984238;28;20058;-59
2024/04/01 03:23:35;;;;;;;0.60;0.60;;;;;;;12.23;81.13;97016.22;4968369;28;20536;-60
2024/04/01 03:26:00;;;;;;;0.47;0.47;;;;;;;12.10;81.29;97005.78;4984319;28;20109;-62
2024/04/01 03:28:26;;;;;;;0.55;0.55;;;;;;;12.13;81.50;96991.13;4984488;28;20069;-60
2024/04/01 03:30:53;;;;;;;0.60;0.60;;;;;;;12.28;79.87;97005.97;5000501;28;20063;-60
2024/04/01 03:33:19;;;;;;;0.60;0.60;;;;;;;12.32;79.92;97013.16;4984506;28;20054;-60
2024/04/01 03:35:44;;;;;;;0.55;0.55;;;;;;;12.30;79.98;97026.59;4984720;28;20069;-60
2024/04/01 03:38:11;;;;;;;0.50;0.50;;;;;;;11.96;79.38;96945.38;4984463;28;20061;-60
2024/04/01 03:40:39;;;;;;;0.50;0.50;;;;;;;12.34;79.38;97021.91;4982275;28;20107;-61
2024/04/01 03:43:05;;;;;;;0.52;0.52;;;;;;;12.32;78.70;97018.69;4976553;28;20070;-61
2024/04/01 03:45:31;;;;;;;0.60;0.60;;;;;;;10.96;79.24;96807.13;4985128;28;20517;-60
2024/04/01 03:47:57;;;;;;;0.57;0.57;;;;;;;12.23;80.47;97010.66;4984873;28;20430;-60
2024/04/01 03:50:23;;;;;;;0.50;0.50;;;;;;;12.23;79.78;97021.00;4984248;28;20086;-60
2024/04/01 03:52:49;;;;;;;0.50;0.50;;;;;;;11.74;79.50;96948.31;4984375;28;20054;-62
2024/04/01 03:55:15;;;;;;;0.50;0.50;;;;;;;12.15;79.50;97030.44;4965111;28;20560;-61
2024/04/01 03:57:41;;;;;;;0.50;0.50;;;;;;;12.13;80.07;97032.78;4964136;28;20055;-61
2024/04/01 04:00:08;;;;;;;0.50;0.50;;;;;;;12.14;80.74;97039.94;4999100;28;20064;-60
2024/04/01 04:02:34;;;;;;;0.50;0.50;;;;;;;12.12;80.82;97039.53;5000292;28;20802;-60
2024/04/01 04:05:00;;;;;;;0.50;0.50;;;;;;;12.14;80.44;97037.16;4983335;28;20051;-60
2024/04/01 04:07:26;;;;;;;0.50;0.50;;;;;;;11.44;80.99;96945.56;4983743;28;20065;-60
2024/04/01 04:09:51;;;;;;;0.52;0.52;;;;;;;12.06;80.65;97039.06;4983805;28;20181;-60
2024/04/01 04:12:17;;;;;;;0.50;0.50;;;;;;;12.14;80.43;97045.47;4984021;28;20058;-60
2024/04/01 04:14:43;;;;;;;0.52;0.52;;;;;;;12.06;79.84;97054.94;4999835;28;20082;-60
2024/04/01 04:17:09;;;;;;;0.57;0.57;;;;;;;12.12;79.94;97058.97;4982704;28;20054;-60
2024/04/01 04:19:35;;;;;;;0.50;0.50;;;;;;;12.09;80.34;97059.72;4983365;28;20189;-60
2024/04/01 04:22:00;;;;;;;0.50;0.50;;;;;;;11.85;80.12;97005.53;4983519;28;20054;-61
2024/04/01 04:24:26;;;;;;;0.50;0.50;;;;;;;11.89;79.71;97008.31;4983192;28;20054;-60
2024/04/01 04:26:52;;;;;;;0.50;0.50;;;;;;;12.33;78.82;97059.19;4982144;28;20541;-60
2024/04/01 04:29:18;;;;;;;0.50;0.50;;;;;;;12.23;78.96;97057.88;4982727;28;20895;-60
2024/04/01 04:31:54;;;;;;;0.50;0.50;;;;;;;12.27;79.20;97046.81;4983731;28;20055;-60
2024/04/01 04:34:23;;;;;;;0.50;0.50;;;;;;;12.41;79.26;97060.84;4983507;28;20054;-61
2024/04/01 04:36:52;;;;;;;0.50;0.50;;;;;;;12.45;78.79;97064.47;4983145;28;20361;-60
2024/04/01 04:39:24;;;;;;;0.60;0.60;;;;;;;12.55;78.47;97072.09;4983361;28;20073;-62
2024/04/01 04:41:51;;;;;;;0.50;0.50;;;;;;;12.62;78.05;97065.81;4999450;28;20050;-61
2024/04/01 04:44:17;;;;;;;0.60;0.60;;;;;;;12.83;77.28;97061.25;4982751;28;20526;-61
2024/04/01 04:46:43;;;;;;;0.60;0.60;;;;;;;12.15;75.83;96953.47;4983045;28;20054;-61
2024/04/01 04:49:08;;;;;;;0.57;0.57;;;;;;;13.01;75.70;97062.22;4983058;28;20054;-60
2024/04/01 04:51:34;;;;;;;0.60;0.60;;;;;;;13.03;75.47;97059.84;4983417;28;20136;-61
2024/04/01 04:54:00;;;;;;;0.60;0.60;;;;;;;12.66;75.30;97006.28;4983568;28;20057;-60
2024/04/01 04:56:26;;;;;;;0.57;0.57;;;;;;;12.70;76.21;97040.50;4983236;28;20058;-60
2024/04/01 04:58:53;;;;;;;0.50;0.50;;;;;;;12.77;77.11;97062.78;4999064;28;20058;-60
2024/04/01 05:01:25;;;;;;;0.55;0.55;;;;;;;13.20;75.84;97081.44;4983060;28;20050;-62
2024/04/01 05:03:51;;;;;;;0.60;0.60;;;;;;;13.40;74.25;97074.41;4998180;28;20058;-62
2024/04/01 05:06:17;;;;;;;0.50;0.50;;;;;;;13.15;76.40;97073.44;4980911;28;20121;-61
2024/04/01 05:08:42;;;;;;;0.60;0.60;;;;;;;13.08;74.93;97028.09;4980660;28;20046;-61
2024/04/01 05:11:08;;;;;;;0.60;0.60;;;;;;;13.49;76.38;97072.09;4981139;28;20129;-62
2024/04/01 05:13:35;;;;;;;0.60;0.60;;;;;;;13.77;74.52;97062.31;4981422;28;20062;-61
2024/04/01 05:16:03;;;;;;;0.60;0.60;;;;;;;13.90;72.70;97058.78;4980777;28;20065;-63
2024/04/01 05:18:29;;;;;;;0.60;0.60;;;;;;;13.65;73.90;97013.34;4989490;28;20598;-61
2024/04/01 05:20:55;;;;;;;0.50;0.50;;;;;;;13.98;72.18;97065.97;4982446;28;20054;-61
2024/04/01 05:23:22;;;;;;;0.60;0.60;;;;;;;13.90;70.84;97069.13;4964768;28;20057;-61
2024/04/01 05:25:47;;;;;;;0.60;0.60;;;;;;;14.03;72.83;97062.81;4981174;28;20058;-61
2024/04/01 05:28:13;;;;;;;0.60;0.60;;;;;;;13.63;72.32;97024.84;4964671;28;20058;-62
2024/04/01 05:30:39;;;;;;;0.60;0.60;;;;;;;13.53;74.07;96994.97;4980385;28;20108;-60
2024/04/01 05:33:05;;;;;;;0.60;0.60;;;;;;;14.20;73.58;97067.66;4979916;28;20058;-61
2024/04/01 05:35:33;;;;;;;0.60;0.60;;;;;;;14.37;72.32;97066.16;4980386;28;20054;-62
2024/04/01 05:37:59;;;;;;;0.60;0.60;;;;;;;14.54;70.66;97052.22;4980563;28;20054;-62
2024/04/01 05:40:26;;;;;;;0.60;0.60;;;;;;;14.70;71.04;97030.34;4982002;28;20050;-64
2024/04/01 05:42:53;;;;;;;0.60;0.60;;;;;;;14.81;71.84;97039.50;4958247;28;20438;-71
2024/04/01 05:45:19;;;;;;;0.70;0.70;;;;;;;15.06;71.18;97053.47;4963180;28;20474;-61
2024/04/01 05:47:47;;;;;;;0.60;0.60;;;;;;;15.17;71.48;97048.69;4961581;28;20058;-65
2024/04/01 05:50:13;;;;;;;0.70;0.70;;;;;;;15.38;70.66;97054.25;4968046;28;20121;-67
2024/04/01 05:52:39;;;;;;;0.60;0.60;;;;;;;15.09;70.50;96958.59;4961622;28;20498;-68
2024/04/01 05:55:07;;;;;;;0.65;0.65;;;;;;;15.75;68.92;97014.66;4967390;28;20051;-62
2024/04/01 05:57:32;;;;;;;0.70;0.70;;;;;;;16.01;66.82;97020.53;4959622;28;20045;-62
2024/04/01 05:59:58;;;;;;;0.70;0.70;;;;;;;16.19;65.83;97038.03;4971035;28;20046;-61
2024/04/01 06:02:24;;;;;;;0.70;0.70;;;;;;;16.56;64.97;97052.25;4945311;28;20090;-66
2024/04/01 06:04:51;;;;;;;0.80;0.80;;;;;;;16.98;64.36;97039.13;4983834;28;20059;-61
2024/04/01 06:07:16;;;;;;;0.70;0.70;;;;;;;17.30;62.29;97039.66;4990294;28;20059;-62
2024/04/01 06:09:42;;;;;;;0.70;0.70;;;;;;;17.22;60.59;96987.72;4977364;28;20551;-62
2024/04/01 06:12:08;;;;;;;0.70;0.70;;;;;;;17.71;59.08;97023.66;4960154;28;20050;-64
2024/04/01 06:14:34;;;;;;;0.80;0.80;;;;;;;17.69;59.08;96937.22;5008615;28;20054;-61
2024/04/01 06:16:59;;;;;;;0.80;0.80;;;;;;;18.63;56.62;97034.50;4968501;28;20534;-65
2024/04/01 06:19:25;;;;;;;0.80;0.80;;;;;;;18.85;55.33;97027.34;4960210;28;20144;-64
2024/04/01 06:21:51;;;;;;;0.80;0.80;;;;;;;18.96;54.50;97023.16;4951422;28;20055;-64
2024/04/01 06:24:18;;;;;;;0.88;0.88;;;;;;;19.08;53.67;97018.94;4967511;28;20047;-66
2024/04/01 06:26:44;;;;;;;1.00;1.00;;;;;;;19.35;53.17;97067.47;4956920;28;20063;-65
2024/04/01 06:29:10;;;;;;;0.82;0.82;;;;;;;18.70;52.63;96888.50;4953315;28;20140;-65
2024/04/01 06:31:35;;;;;;;0.90;0.90;;;;;;;19.83;51.61;97027.66;4960276;28;20058;-61
2024/04/01 06:34:01;;;;;;;0.80;0.80;;;;;;;19.91;51.76;96998.19;4966685;28;20057;-62
2024/04/01 06:36:27;;;;;;;0.80;0.80;;;;;;;20.01;51.05;96980.31;4956311;28;20062;-67
2024/04/01 06:38:53;;;;;;;1.00;1.00;;;;;;;20.60;50.25;97018.41;4990769;28;20050;-63
2024/04/01 06:41:19;;;;;;;0.90;0.90;;;;;;;20.19;48.56;96970.28;4964063;28;20050;-63
2024/04/01 06:43:44;;;;;;;0.90;0.90;;;;;;;20.59;49.12;97016.84;4974223;28;20096;-67
2024/04/01 06:46:10;;;;;;;0.90;0.90;;;;;;;20.03;50.15;96989.09;4979197;28;20060;-62
2024/04/01 06:48:36;;;;;;;0.80;0.80;;;;;;;20.66;49.67;97024.31;4980246;28;20054;-62
2024/04/01 06:51:02;;;;;;;0.90;0.90;;;;;;;20.78;49.38;97006.72;4982958;28;20058;-65
2024/04/01 06:53:28;;;;;;;0.90;0.90;;;;;;;20.26;49.37;96915.88;4945844;28;20054;-61
2024/04/01 06:55:53;;;;;;;0.88;0.88;;;;;;;20.71;48.51;97001.25;4983058;28;20148;-64
2024/04/01 06:58:19;;;;;;;0.80;0.80;;;;;;;20.48;49.26;97026.72;4967822;28;20062;-65
2024/04/01 07:00:45;;;;;;;0.90;0.90;;;;;;;20.12;51.45;97020.25;4985131;28;20058;-65
2024/04/01 07:03:11;;;;;;;0.80;0.80;;;;;;;20.10;51.95;97011.44;4963968;28;20133;-64
2024/04/01 07:05:38;;;;;;;0.90;0.90;;;;;;;20.15;52.54;97031.47;4968340;28;20534;-63
2024/04/01 07:08:04;;;;;;;0.90;0.90;;;;;;;19.70;54.82;97032.31;4979516;28;20055;-64
2024/04/01 07:10:30;;;;;;;0.82;0.82;;;;;;;18.64;57.42;96888.19;4983773;28;20058;-67
2024/04/01 07:12:56;;;;;;;0.90;0.90;;;;;;;19.25;56.97;97001.03;4979332;28;20347;-65
2024/04/01 07:15:23;;;;;;;0.90;0.90;;;;;;;20.03;52.65;97020.03;4983570;28;20069;-62
2024/04/01 07:17:49;;;;;;;0.88;0.88;;;;;;;20.15;51.21;96974.41;4965594;28;20365;-65
2024/04/01 07:20:15;;;;;;;0.90;0.90;;;;;;;20.65;52.20;97031.16;4970926;28;20082;-65
2024/04/01 07:22:43;;;;;;;0.90;0.90;;;;;;;18.99;50.96;96719.09;4997247;28;20093;-71
2024/04/01 07:25:09;;;;;;;0.80;0.80;;;;;;;21.14;50.70;97032.03;5016375;28;20085;-62
2024/04/01 07:27:36;;;;;;;0.90;0.90;;;;;;;20.83;48.86;96966.78;4968711;28;20129;-66
2024/04/01 07:30:02;;;;;;;1.00;1.00;;;;;;;20.97;48.84;96941.13;4974032;28;20058;-64
2024/04/01 07:32:29;;;;;;;0.80;0.80;;;;;;;21.68;48.96;97025.41;4981411;28;20438;-64
2024/04/01 07:34:56;;;;;;;0.95;0.95;;;;;;;21.59;48.55;96970.88;4981537;28;20154;-65
2024/04/01 07:37:22;;;;;;;0.88;0.88;;;;;;;21.45;49.30;96994.59;4967933;28;20077;-65
2024/04/01 07:39:48;;;;;;;0.95;0.95;;;;;;;20.94;51.09;96998.31;4975719;28;20434;-70
2024/04/01 07:42:15;;;;;;;0.90;0.90;;;;;;;21.59;51.21;97028.03;4997248;28;20063;-63
2024/04/01 07:44:40;;;;;;;0.80;0.80;;;;;;;21.54;49.90;96935.56;4979328;28;20054;-62
2024/04/01 07:47:06;;;;;;;0.85;0.85;;;;;;;22.16;50.86;97022.44;4983543;28;20406;-65
2024/04/01 07:49:33;;;;;;;0.90;0.90;;;;;;;22.29;50.56;97009.19;4977459;28;20063;-61
2024/04/01 07:51:59;;;;;;;0.90;0.90;;;;;;;22.69;50.19;96991.84;4996552;28;20062;-64
2024/04/01 07:54:26;;;;;;;0.90;0.90;;;;;;;21.53;50.71;96945.25;4996859;28;20059;-63
2024/04/01 07:56:52;;;;;;;1.00;1.00;;;;;;;21.51;50.66;96924.38;4964219;28;20074;-66
2024/04/01 07:59:18;;;;;;;0.90;0.90;;;;;;;22.11;50.87;97014.53;4955261;28;20121;-65
2024/04/01 08:01:45;;;;;;;1.00;1.00;;;;;;;22.42;49.75;96987.41;4996995;28;20129;-69
2024/04/01 08:04:11;;;;;;;0.90;0.90;;;;;;;22.00;50.44;96968.13;4974924;28;20528;-65
2024/04/01 08:06:37;;;;;;;0.90;0.90;;;;;;;21.72;50.77;96938.66;4984160;28;20085;-68
2024/04/01 08:09:02;;;;;;;0.97;0.97;;;;;;;21.97;49.71;96885.16;4751597;28;5003094;-64
2024/04/01 08:11:28;;;;;;;1.02;1.02;;;;;;;23.01;47.30;97005.78;4981964;28;20110;-67
2024/04/01 08:13:54;;;;;;;0.90;0.90;;;;;;;22.97;46.25;96968.38;4966849;28;20065;-62
2024/04/01 08:16:19;;;;;;;1.05;1.05;;;;;;;22.72;45.69;96880.81;4983238;28;20060;-66
2024/04/01 08:18:45;;;;;;;1.00;1.00;;;;;;;23.57;45.54;96989.72;4983423;28;20529;-61
2024/04/01 08:21:11;;;;;;;1.02;1.02;;;;;;;23.63;44.77;96979.44;4983080;28;20065;-64
2024/04/01 08:23:37;;;;;;;1.10;1.10;;;;;;;23.94;42.61;96974.66;4983523;28;20055;-67
2024/04/01 08:26:03;;;;;;;1.20;1.20;;;;;;;24.48;41.80;96980.72;4983682;28;20112;-69
2024/04/01 08:28:28;;;;;;;1.30;1.30;;;;;;;24.55;42.87;96983.28;4982883;28;20058;-63
2024/04/01 08:30:54;;;;;;;1.10;1.10;;;;;;;24.42;42.31;96993.13;4999156;28;20057;-63
2024/04/01 08:33:20;;;;;;;1.10;1.10;;;;;;;24.51;42.25;96985.47;4999013;28;20050;-64
2024/04/01 08:35:46;;;;;;;1.13;1.13;;;;;;;24.48;41.89;96951.59;4982707;28;20062;-67
2024/04/01 08:38:11;;;;;;;1.10;1.10;;;;;;;24.43;41.33;96927.53;4998887;28;20038;-70
2024/04/01 08:40:43;;;;;;;1.15;1.15;;;;;;;24.40;41.23;96866.16;4966214;28;20050;-70
2024/04/01 08:43:15;;;;;;;1.20;1.20;;;;;;;24.45;40.75;96927.06;4982775;28;20274;-70
2024/04/01 08:45:43;;;;;;;1.10;1.10;;;;;;;23.38;41.06;96764.63;4982784;28;20050;-64
2024/04/01 08:48:12;;;;;;;1.20;1.20;;;;;;;24.65;40.50;96967.91;4983111;28;20054;-63
2024/04/01 08:50:49;;;;;;;1.00;1.00;;;;;;;24.86;40.00;96971.97;4981753;28;20058;-68
2024/04/01 08:53:37;;;;;;;1.00;1.00;;;;;;;25.20;39.28;96975.38;4982156;28;20077;-68
2024/04/01 08:56:04;;;;;;;1.13;1.13;;;;;;;25.10;39.40;96953.94;4999489;28;20072;-63
2024/04/01 08:58:30;;;;;;;1.25;1.25;;;;;;;25.11;39.10;96949.84;4966982;28;20390;-66
2024/04/01 09:00:56;;;;;;;1.10;1.10;;;;;;;25.07;39.64;96918.00;4991053;28;20092;-71
2024/04/01 09:03:21;;;;;;;1.27;1.27;;;;;;;25.36;38.95;96909.13;4981864;28;20066;-71
2024/04/01 09:05:47;;;;;;;1.10;1.10;;;;;;;24.87;39.08;96835.47;4998634;28;20058;-71
2024/04/01 09:08:13;;;;;;;1.20;1.20;;;;;;;25.20;39.14;96958.38;4978532;28;20508;-66
2024/04/01 09:10:40;;;;;;;1.30;1.30;;;;;;;25.48;38.28;96935.78;4963667;28;20065;-63
2024/04/01 09:13:13;;;;;;;1.10;1.10;;;;;;;25.24;38.03;96959.00;4964771;28;20125;-62
2024/04/01 09:15:40;;;;;;;1.25;1.25;;;;;;;25.38;37.57;96942.69;4995181;28;20073;-70
2024/04/01 09:18:11;;;;;;;1.30;1.30;;;;;;;25.73;37.91;96909.91;4959230;28;20441;-66
2024/04/01 09:20:42;;;;;;;1.25;1.25;;;;;;;26.32;36.89;96940.47;4992388;28;20554;-71
2024/04/01 09:23:08;;;;;;;1.20;1.20;;;;;;;25.61;36.74;96879.66;4977131;28;20077;-68
2024/04/01 09:25:34;;;;;;;1.20;1.20;;;;;;;25.93;36.62;96859.13;4993660;28;20410;-65
2024/04/01 09:28:00;;;;;;;1.13;1.13;;;;;;;25.54;36.79;96885.66;4993414;28;20073;-65
2024/04/01 09:30:27;;;;;;;1.30;1.30;;;;;;;23.47;36.60;96566.78;4960976;28;20437;-70
2024/04/01 09:32:53;;;;;;;1.20;1.20;;;;;;;25.88;36.29;96927.88;4962115;28;20118;-66
2024/04/01 09:35:22;;;;;;;1.30;1.30;;;;;;;26.49;35.08;96924.66;4962488;28;20055;-68
2024/04/01 09:37:49;;;;;;;1.30;1.30;;;;;;;26.31;34.18;96860.16;4978781;28;20537;-60
2024/04/01 09:40:16;;;;;;;1.40;1.40;;;;;;;27.00;33.02;96914.03;4993915;28;20051;-62
2024/04/01 09:42:42;;;;;;;1.40;1.40;;;;;;;27.17;33.72;96920.09;4962039;28;20541;-72
2024/04/01 09:45:08;;;;;;;1.60;1.60;;;;;;;26.35;33.01;96712.28;4994126;28;20505;-73
2024/04/01 09:47:37;;;;;;;1.52;1.52;;;;;;;27.90;32.45;96904.88;4995311;28;20070;-59
2024/04/01 09:50:09;;;;;;;1.55;1.55;;;;;;;28.24;31.95;96891.25;4995282;28;20545;-61
2024/04/01 09:52:35;;;;;;;1.52;1.52;;;;;;;27.92;31.21;96845.38;4995786;28;20566;-59
2024/04/01 09:55:15;;;;;;;1.30;1.30;;;;;;;27.41;32.57;96901.78;4995710;28;20835;-72
2024/04/01 09:58:15;;;;;;;1.10;1.10;;;;;;;27.02;32.96;96905.78;4962648;28;20090;-71
2024/04/01 10:00:59;;;;;;;1.50;1.50;;;;;;;27.64;32.04;96889.59;4946059;28;20062;-62
2024/04/01 10:03:40;;;;;;;1.35;1.35;;;;;;;28.11;31.89;96886.66;4961309;28;20622;-62
2024/04/01 10:06:18;;;;;;;1.48;1.48;;;;;;;28.52;31.64;96881.16;4976912;28;20576;-72
2024/04/01 10:09:23;;;;;;;1.73;1.73;;;;;;;28.65;30.77;96873.06;4961340;28;20066;-67
2024/04/01 10:11:49;;;;;;;1.70;1.70;;;;;;;27.99;30.84;96872.69;4948032;28;20050;-62
2024/04/01 10:14:36;;;;;;;1.20;1.20;;;;;;;27.63;31.19;96862.38;4961336;28;20109;-63
2024/04/01 10:17:24;;;;;;;1.60;1.60;;;;;;;27.54;31.21;96865.31;4960128;28;20058;-62
2024/04/01 10:20:08;;;;;;;1.50;1.50;;;;;;;27.82;31.89;96863.78;4977984;28;20053;-66
2024/04/01 10:22:52;;;;;;;1.60;1.60;;;;;;;28.18;31.19;96863.44;4959108;28;20632;-63
2024/04/01 10:25:57;;;;;;;1.70;1.70;;;;;;;28.75;31.10;96865.97;4974504;28;20058;-68
2024/04/01 10:28:31;;;;;;;1.70;1.70;;;;;;;28.93;30.03;96860.00;4993494;28;20062;-63
2024/04/01 10:31:25;;;;;;;1.70;1.70;;;;;;;29.22;29.82;96854.25;4945466;28;20055;-64
2024/04/01 10:34:20;;;;;;;1.50;1.50;;;;;;;28.97;29.38;96792.16;4983486;28;20085;-67
2024/04/01 10:37:40;;;;;;;1.60;1.60;;;;;;;28.85;30.59;96847.47;4942573;29;20203;-67
2024/04/01 10:40:39;;;;;;;1.65;1.65;;;;;;;29.54;28.94;96841.69;4986054;28;20061;-67
2024/04/01 10:43:32;;;;;;;1.75;1.75;;;;;;;29.90;28.34;96829.66;4945094;28;20089;-68
2024/04/01 10:46:04;;;;;;;1.63;1.63;;;;;;;30.15;27.77;96828.84;4945948;28;20504;-65
2024/04/01 10:48:30;;;;;;;1.80;1.80;;;;;;;30.33;28.37;96828.53;4961958;28;20493;-77
2024/04/01 10:51:22;;;;;;;1.88;1.88;;;;;;;30.48;27.89;96817.72;4945711;28;20464;-63
2024/04/01 10:53:57;;;;;;;1.77;1.77;;;;;;;30.26;28.68;96814.69;4961922;28;20470;-63
2024/04/01 10:56:38;;;;;;;1.80;1.80;;;;;;;30.47;28.16;96816.16;4961436;28;20054;-70
2024/04/01 10:59:44;;;;;;;1.83;1.83;;;;;;;30.43;27.71;96809.88;4960749;28;20103;-73
2024/04/01 11:02:34;;;;;;;1.85;1.85;;;;;;;30.16;27.34;96804.69;4976972;28;20070;-66
2024/04/01 11:05:19;;;;;;;1.77;1.77;;;;;;;29.56;27.05;96810.53;4961001;28;20055;-69
2024/04/01 11:08:22;;;;;;;1.52;1.52;;;;;;;29.50;27.20;96801.13;4944957;28;20434;-60
2024/04/01 11:10:59;;;;;;;1.60;1.60;;;;;;;29.82;27.33;96782.03;4983729;28;20509;-62
2024/04/01 11:13:28;;;;;;;1.80;1.80;;;;;;;29.47;26.94;96762.16;4993269;28;20058;-62
2024/04/01 11:15:56;;;;;;;1.80;1.80;;;;;;;30.02;26.80;96774.16;4961141;28;20059;-64
2024/04/01 11:18:34;;;;;;;1.70;1.70;;;;;;;30.12;26.23;96789.84;4992981;28;20055;-71
2024/04/01 11:21:23;;;;;;;1.77;1.77;;;;;;;29.71;26.32;96633.41;4994332;28;20061;-62
2024/04/01 11:23:52;;;;;;;1.80;1.80;;;;;;;31.24;26.00;96783.59;4963579;28;20063;-63
2024/04/01 11:26:39;;;;;;;1.90;1.90;;;;;;;31.15;25.22;96789.56;4960843;28;20054;-67
2024/04/01 11:29:12;;;;;;;1.77;1.77;;;;;;;31.65;25.53;96776.22;4959358;28;20073;-73
2024/04/01 11:31:46;;;;;;;1.73;1.73;;;;;;;31.50;24.81;96752.75;4976030;28;20061;-64
2024/04/01 11:34:24;;;;;;;1.92;1.92;;;;;;;31.67;24.33;96770.75;4961334;28;20814;-66
2024/04/01 11:37:07;;;;;;;1.70;1.70;;;;;;;30.87;25.23;96770.16;4996955;28;20055;-65
2024/04/01 11:39:37;;;;;;;1.52;1.52;;;;;;;29.72;26.48;96658.59;4998708;28;20378;-61
2024/04/01 11:42:06;;;;;;;1.88;1.88;;;;;;;31.28;25.63;96764.91;4996563;28;20497;-66